createdAt,value
2019-04-04T00:01:47.795Z,50.51
2019-04-04T00:04:17.310Z,50.58
2019-04-04T00:06:47.420Z,50.76
2019-04-04T00:09:18.207Z,50.84
2019-04-04T00:11:48.304Z,51.08
2019-04-04T00:14:18.285Z,51.37
2019-04-04T00:16:48.827Z,51.37
2019-04-04T00:19:19.381Z,51.54
2019-04-04T00:21:49.410Z,51.67
2019-04-04T00:24:19.545Z,51.77
2019-04-04T00:26:49.760Z,51.83
2019-04-04T00:29:19.869Z,51.88
2019-04-04T00:31:50.295Z,52.03
2019-04-04T00:34:20.353Z,52.00
2019-04-04T00:36:50.557Z,52.08
2019-04-04T00:39:20.408Z,52.08
2019-04-04T00:41:50.269Z,52.25
2019-04-04T00:44:21.052Z,52.19
2019-04-04T00:46:52.501Z,52.19
2019-04-04T00:49:22.188Z,52.36
2019-04-04T00:51:52.339Z,52.54
2019-04-04T00:54:22.324Z,52.57
2019-04-04T00:56:52.469Z,52.68
2019-04-04T00:59:23.122Z,52.77
2019-04-04T01:01:55.053Z,52.88
2019-04-04T01:04:25.561Z,52.94
2019-04-04T01:06:55.541Z,53.00
2019-04-04T01:09:25.483Z,53.02
2019-04-04T01:11:55.680Z,53.17
2019-04-04T01:14:27.136Z,53.06
2019-04-04T01:16:57.963Z,53.00
2019-04-04T01:19:27.991Z,53.06
2019-04-04T01:21:58.087Z,53.12
2019-04-04T01:24:29.150Z,53.13
2019-04-04T01:27:00.445Z,53.23
2019-04-04T01:29:30.375Z,53.11
2019-04-04T01:32:00.327Z,53.02
2019-04-04T01:34:30.480Z,53.02
2019-04-04T01:37:00.571Z,52.90
2019-04-04T01:39:31.185Z,52.86
2019-04-04T01:42:02.014Z,52.91
2019-04-04T01:44:31.989Z,52.82
2019-04-04T01:47:01.933Z,52.77
2019-04-04T01:49:32.152Z,52.93
2019-04-04T01:52:02.174Z,53.11
2019-04-04T01:54:32.787Z,53.04
2019-04-04T01:57:02.716Z,53.07
2019-04-04T01:59:32.561Z,53.02
2019-04-04T02:02:02.325Z,52.94
2019-04-04T02:04:32.416Z,52.98
2019-04-04T02:07:02.512Z,53.14
2019-04-04T02:09:34.628Z,53.16
2019-04-04T02:12:07.683Z,53.06
2019-04-04T02:14:36.466Z,52.76
2019-04-04T02:17:06.626Z,52.64
2019-04-04T02:19:36.810Z,52.69
2019-04-04T02:22:06.794Z,52.70
2019-04-04T02:24:36.915Z,52.61
2019-04-04T02:27:07.715Z,52.68
2019-04-04T02:29:37.635Z,52.63
2019-04-04T02:32:11.465Z,52.75
2019-04-04T02:34:41.362Z,52.72
2019-04-04T02:37:11.275Z,52.77
2019-04-04T02:39:41.571Z,52.69
2019-04-04T02:42:11.485Z,52.57
2019-04-04T02:44:41.404Z,52.48
2019-04-04T02:47:11.251Z,52.49
2019-04-04T02:49:41.384Z,52.46
2019-04-04T02:52:13.298Z,52.43
2019-04-04T02:54:43.195Z,52.58
2019-04-04T02:57:13.210Z,52.71
2019-04-04T02:59:43.717Z,52.68
2019-04-04T03:02:13.706Z,52.60
2019-04-04T03:04:46.946Z,52.63
2019-04-04T03:07:16.121Z,52.72
2019-04-04T03:09:46.329Z,52.75
2019-04-04T03:12:16.933Z,52.76
2019-04-04T03:14:50.575Z,52.76
2019-04-04T03:17:19.875Z,52.70
2019-04-04T03:19:49.907Z,52.59
2019-04-04T03:22:19.950Z,52.56
2019-04-04T03:24:49.871Z,52.41
2019-04-04T03:27:25.740Z,52.30
2019-04-04T03:29:52.948Z,52.15
2019-04-04T03:32:23.307Z,52.08
2019-04-04T03:36:37.043Z,51.93
2019-04-04T03:39:07.656Z,51.69
2019-04-04T03:41:37.916Z,51.62
2019-04-04T03:44:08.371Z,51.57
2019-04-04T03:46:39.226Z,51.48
2019-04-04T03:49:09.543Z,51.37
2019-04-04T03:51:39.871Z,51.25
2019-04-04T03:54:16.932Z,51.10
2019-04-04T03:56:47.508Z,51.06
2019-04-04T03:59:17.886Z,51.01
2019-04-04T04:01:48.140Z,50.97
2019-04-04T04:04:21.074Z,51.00
2019-04-04T04:06:52.116Z,50.89
2019-04-04T04:09:23.499Z,50.78
2019-04-04T04:11:55.256Z,50.69
2019-04-04T04:14:26.634Z,50.65
2019-04-04T04:16:57.003Z,50.57
2019-04-04T04:19:30.923Z,50.59
2019-04-04T04:22:00.053Z,50.63
2019-04-04T04:24:30.580Z,50.60
2019-04-04T04:27:01.236Z,50.63
2019-04-04T04:29:31.495Z,50.41
2019-04-04T04:32:02.058Z,50.11
2019-04-04T04:34:34.019Z,49.94
2019-04-04T04:37:04.836Z,49.84
2019-04-04T04:39:41.443Z,49.65
2019-04-04T04:42:11.105Z,49.53
2019-04-04T04:44:41.655Z,49.40
2019-04-04T04:47:12.309Z,49.31
2019-04-04T04:49:42.767Z,49.05
2019-04-04T04:52:15.069Z,48.85
2019-04-04T04:54:45.235Z,48.64
2019-04-04T04:57:28.834Z,48.28
2019-04-04T04:59:48.591Z,48.19
2019-04-04T05:02:22.033Z,47.88
2019-04-04T05:04:52.063Z,47.65
2019-04-04T05:07:22.665Z,47.30
2019-04-04T05:09:52.916Z,47.10
2019-04-04T05:12:23.540Z,47.00
2019-04-04T05:14:53.838Z,46.66
2019-04-04T05:17:24.266Z,46.31
2019-04-04T05:19:54.612Z,46.16
2019-04-04T05:22:25.588Z,46.03
2019-04-04T05:25:08.058Z,45.76
2019-04-04T05:27:28.958Z,45.63
2019-04-04T05:29:59.499Z,45.48
2019-04-04T05:32:30.150Z,45.16
2019-04-04T05:35:02.540Z,44.99
2019-04-04T05:37:33.654Z,44.48
2019-04-04T05:40:04.881Z,44.46
2019-04-04T05:42:35.174Z,44.30
2019-04-04T05:45:07.031Z,44.11
2019-04-04T05:47:37.648Z,43.89
2019-04-04T05:50:11.130Z,43.66
2019-04-04T05:52:40.817Z,43.44
2019-04-04T05:55:11.357Z,43.24
2019-04-04T05:57:41.827Z,42.97
2019-04-04T06:00:15.185Z,42.94
2019-04-04T06:02:46.428Z,42.84
2019-04-04T06:05:17.479Z,42.55
2019-04-04T06:07:47.900Z,42.17
2019-04-04T06:10:19.183Z,42.18
2019-04-04T06:12:50.238Z,41.78
2019-04-04T06:15:22.669Z,41.68
2019-04-04T06:17:52.905Z,41.52
2019-04-04T06:20:26.597Z,41.34
2019-04-04T06:22:59.501Z,41.15
2019-04-04T06:25:34.299Z,40.82
2019-04-04T06:28:02.645Z,40.43
2019-04-04T06:30:43.052Z,40.12
2019-04-04T06:33:07.590Z,39.99
2019-04-04T06:35:39.967Z,39.55
2019-04-04T06:38:11.099Z,39.05
2019-04-04T06:40:42.519Z,38.63
2019-04-04T06:43:13.174Z,38.26
2019-04-04T06:45:46.345Z,37.77
2019-04-04T06:48:16.656Z,37.20
2019-04-04T06:50:47.717Z,36.97
2019-04-04T06:53:21.850Z,36.54
2019-04-04T06:55:51.281Z,36.42
2019-04-04T06:58:22.303Z,36.01
2019-04-04T07:00:52.740Z,35.70
2019-04-04T07:03:23.160Z,35.58
2019-04-04T07:05:53.655Z,35.33
2019-04-04T07:08:24.354Z,35.36
2019-04-04T07:10:58.276Z,35.22
2019-04-04T07:13:28.306Z,34.79
2019-04-04T07:16:06.925Z,34.61
2019-04-04T07:18:31.495Z,34.29
2019-04-04T07:21:03.588Z,34.23
2019-04-04T07:23:34.248Z,34.28
2019-04-04T07:26:05.067Z,33.85
2019-04-04T07:28:35.728Z,33.67
2019-04-04T07:31:06.320Z,33.50
2019-04-04T07:33:37.036Z,33.18
2019-04-04T07:36:07.731Z,33.05
2019-04-04T07:38:39.841Z,32.53
2019-04-04T07:41:10.224Z,32.10
2019-04-04T07:43:41.279Z,32.25
2019-04-04T07:46:16.931Z,32.34
2019-04-04T07:48:46.241Z,32.21
2019-04-04T07:51:17.106Z,32.22
2019-04-04T07:53:48.487Z,31.46
2019-04-04T07:56:19.147Z,30.96
2019-04-04T07:58:49.499Z,30.41
2019-04-04T08:01:20.070Z,30.11
2019-04-04T08:03:50.745Z,28.97
2019-04-04T08:06:21.804Z,28.09
2019-04-04T08:08:52.216Z,28.04
2019-04-04T08:11:22.995Z,27.93
2019-04-04T08:13:53.473Z,28.09
2019-04-04T08:16:24.048Z,27.84
2019-04-04T08:18:54.400Z,27.56
2019-04-04T08:21:24.687Z,27.51
2019-04-04T08:23:55.106Z,27.55
2019-04-04T08:26:25.724Z,27.60
2019-04-04T08:28:56.212Z,27.41
2019-04-04T08:31:26.533Z,27.24
2019-04-04T08:33:56.850Z,27.20
2019-04-04T08:36:27.668Z,26.89
2019-04-04T08:38:58.310Z,26.53
2019-04-04T08:41:28.873Z,26.83
2019-04-04T08:43:59.285Z,26.77
2019-04-04T08:46:30.097Z,26.55
2019-04-04T08:49:00.633Z,26.23
2019-04-04T08:51:31.129Z,26.16
2019-04-04T08:54:04.511Z,25.80
2019-04-04T08:56:35.407Z,25.55
2019-04-04T08:59:05.990Z,25.46
2019-04-04T09:01:39.774Z,25.74
2019-04-04T09:04:10.277Z,25.79
2019-04-04T09:06:40.969Z,25.69
2019-04-04T09:09:11.662Z,25.68
2019-04-04T09:11:42.088Z,25.60
2019-04-04T09:14:12.910Z,25.36
2019-04-04T09:16:43.540Z,25.33
2019-04-04T09:19:16.197Z,24.99
2019-04-04T09:21:50.460Z,24.86
2019-04-04T09:24:20.948Z,24.70
2019-04-04T09:26:51.893Z,24.90
2019-04-04T09:29:22.406Z,24.70
2019-04-04T09:31:53.234Z,24.35
2019-04-04T09:34:23.744Z,24.37
2019-04-04T09:36:55.124Z,24.37
2019-04-04T09:39:25.910Z,24.33
2019-04-04T09:41:56.483Z,24.01
2019-04-04T09:44:26.901Z,24.10
2019-04-04T09:47:05.223Z,24.27
2019-04-04T09:49:29.515Z,24.54
2019-04-04T09:51:59.997Z,24.96
2019-04-04T09:54:30.821Z,25.06
2019-04-04T09:57:01.449Z,24.42
2019-04-04T09:59:32.306Z,23.60
2019-04-04T10:02:03.110Z,23.76
2019-04-04T10:04:35.112Z,24.58
2019-04-04T10:07:05.846Z,24.63
2019-04-04T10:09:36.660Z,24.57
2019-04-04T10:12:07.736Z,24.50
2019-04-04T10:14:38.660Z,24.85
2019-04-04T10:17:09.087Z,24.15
2019-04-04T10:19:39.941Z,24.28
2019-04-04T10:22:11.213Z,24.14
2019-04-04T10:24:41.959Z,23.93
2019-04-04T10:27:12.413Z,23.75
2019-04-04T10:29:42.929Z,23.64
2019-04-04T10:32:13.602Z,23.63
2019-04-04T10:34:44.419Z,23.56
2019-04-04T10:37:14.775Z,23.85
2019-04-04T10:39:45.743Z,23.58
2019-04-04T10:42:17.550Z,23.49
2019-04-04T10:44:48.010Z,23.18
2019-04-04T10:47:18.644Z,23.18
2019-04-04T10:49:50.559Z,23.53
2019-04-04T10:52:21.115Z,23.71
2019-04-04T10:54:51.679Z,23.34
2019-04-04T10:57:22.735Z,23.23
2019-04-04T10:59:54.505Z,23.37
2019-04-04T11:02:25.463Z,23.39
2019-04-04T11:04:58.837Z,23.36
2019-04-04T11:07:29.481Z,23.26
2019-04-04T11:10:00.090Z,23.07
2019-04-04T11:12:34.319Z,22.89
2019-04-04T11:15:06.621Z,23.03
2019-04-04T11:17:38.017Z,23.34
2019-04-04T11:20:09.020Z,22.94
2019-04-04T11:22:39.435Z,22.12
2019-04-04T11:25:10.705Z,22.24
2019-04-04T11:27:41.254Z,22.17
2019-04-04T11:30:11.885Z,22.28
2019-04-04T11:32:42.855Z,22.28
2019-04-04T11:35:13.314Z,22.06
2019-04-04T11:37:44.126Z,21.62
2019-04-04T11:40:14.972Z,21.46
2019-04-04T11:42:46.719Z,21.65
2019-04-04T11:45:18.146Z,21.08
2019-04-04T11:47:49.014Z,21.29
2019-04-04T11:50:21.197Z,21.38
2019-04-04T11:52:51.719Z,21.26
2019-04-04T11:55:22.101Z,21.41
2019-04-04T11:57:53.305Z,21.22
2019-04-04T12:00:40.193Z,20.84
2019-04-04T12:03:10.665Z,20.61
2019-04-04T12:05:41.259Z,20.65
2019-04-04T12:08:11.807Z,20.45
2019-04-04T12:10:43.599Z,20.24
2019-04-04T12:13:14.456Z,20.13
2019-04-04T12:15:45.219Z,20.00
2019-04-04T12:18:15.594Z,19.97
2019-04-04T12:20:46.145Z,19.80
2019-04-04T12:23:17.256Z,19.36
2019-04-04T12:25:47.748Z,18.75
2019-04-04T12:28:18.545Z,18.39
2019-04-04T12:30:49.346Z,18.03
2019-04-04T12:33:19.741Z,17.54
2019-04-04T12:35:52.377Z,17.19
2019-04-04T12:38:22.501Z,17.11
2019-04-04T12:40:54.046Z,16.50
2019-04-04T12:43:24.685Z,15.64
2019-04-04T12:45:55.900Z,15.48
2019-04-04T12:48:28.189Z,15.37
2019-04-04T12:51:03.028Z,14.79
2019-04-04T12:53:32.874Z,14.14
2019-04-04T12:56:04.023Z,14.02
2019-04-04T12:58:34.608Z,13.92
2019-04-04T13:01:06.105Z,13.82
2019-04-04T13:03:37.522Z,13.60
2019-04-04T13:06:10.580Z,13.98
2019-04-04T13:08:43.487Z,14.10
2019-04-04T13:11:15.108Z,14.64
2019-04-04T13:13:46.167Z,14.60
2019-04-04T13:16:19.368Z,14.92
2019-04-04T13:18:50.031Z,14.79
2019-04-04T13:21:21.632Z,14.38
2019-04-04T13:23:52.367Z,14.38
2019-04-04T13:26:22.886Z,14.44
2019-04-04T13:28:53.571Z,14.56
2019-04-04T13:31:24.318Z,14.36
2019-04-04T13:33:55.502Z,14.24
2019-04-04T13:36:31.341Z,14.37
2019-04-04T13:39:01.811Z,13.78
2019-04-04T13:41:33.993Z,13.91
2019-04-04T13:44:04.478Z,13.77
2019-04-04T13:46:35.084Z,13.94
2019-04-04T13:49:06.005Z,14.04
2019-04-04T13:51:36.726Z,13.95
2019-04-04T13:54:07.286Z,13.75
2019-04-04T13:56:39.517Z,13.71
2019-04-04T13:59:10.440Z,13.87
2019-04-04T14:01:42.910Z,13.98
2019-04-04T14:04:13.920Z,14.15
2019-04-04T14:06:44.742Z,14.17
2019-04-04T14:09:16.227Z,14.81
2019-04-04T14:11:47.127Z,15.15
2019-04-04T14:14:17.841Z,14.89
2019-04-04T14:16:48.380Z,14.48
2019-04-04T14:19:18.887Z,14.38
2019-04-04T14:21:49.475Z,14.27
2019-04-04T14:24:22.486Z,14.39
2019-04-04T14:26:53.099Z,14.48
2019-04-04T14:29:27.735Z,14.05
2019-04-04T14:31:57.016Z,14.06
2019-04-04T14:34:27.678Z,14.12
2019-04-04T14:36:58.595Z,14.37
2019-04-04T14:39:29.632Z,14.89
2019-04-04T14:42:00.544Z,15.63
2019-04-04T14:44:31.013Z,16.37
2019-04-04T14:47:02.508Z,17.06
2019-04-04T14:49:32.935Z,17.89
2019-04-04T14:52:03.732Z,18.56
2019-04-04T14:54:34.412Z,19.30
2019-04-04T14:57:05.029Z,20.04
2019-04-04T14:59:35.503Z,20.57
2019-04-04T15:02:06.406Z,20.85
2019-04-04T15:04:36.909Z,21.32
2019-04-04T15:07:07.315Z,21.65
2019-04-04T15:09:37.676Z,21.95
2019-04-04T15:12:08.036Z,22.50
2019-04-04T15:14:38.376Z,22.98
2019-04-04T15:17:09.059Z,23.24
2019-04-04T15:19:39.198Z,23.60
2019-04-04T15:22:09.630Z,23.72
2019-04-04T15:24:40.187Z,23.96
2019-04-04T15:27:10.947Z,24.47
2019-04-04T15:29:41.892Z,24.80
2019-04-04T15:32:12.625Z,24.98
2019-04-04T15:34:43.700Z,25.35
2019-04-04T15:37:14.362Z,25.69
2019-04-04T15:39:45.633Z,25.75
2019-04-04T15:42:16.578Z,25.94
2019-04-04T15:44:46.935Z,25.96
2019-04-04T15:47:17.279Z,26.05
2019-04-04T15:49:48.077Z,26.29
2019-04-04T15:52:18.437Z,26.38
2019-04-04T15:54:48.953Z,26.58
2019-04-04T15:57:20.172Z,26.86
2019-04-04T15:59:50.986Z,27.01
2019-04-04T16:02:22.912Z,27.26
2019-04-04T16:04:53.345Z,27.72
2019-04-04T16:07:23.744Z,27.65
2019-04-04T16:09:54.156Z,27.78
2019-04-04T16:12:25.275Z,27.84
2019-04-04T16:14:55.767Z,28.03
2019-04-04T16:17:26.421Z,28.17
2019-04-04T16:19:56.809Z,28.31
2019-04-04T16:22:30.234Z,28.52
2019-04-04T16:25:00.823Z,28.66
2019-04-04T16:27:32.678Z,28.81
2019-04-04T16:30:03.997Z,29.31
2019-04-04T16:32:34.500Z,29.43
2019-04-04T16:35:05.602Z,29.38
2019-04-04T16:37:36.168Z,29.59
2019-04-04T16:40:09.052Z,29.67
2019-04-04T16:42:40.522Z,29.73
2019-04-04T16:45:11.426Z,29.78
2019-04-04T16:47:41.777Z,29.91
2019-04-04T16:50:12.628Z,30.07
2019-04-04T16:52:42.964Z,30.14
2019-04-04T16:55:13.374Z,30.33
2019-04-04T16:57:45.045Z,30.52
2019-04-04T17:00:16.050Z,30.73
2019-04-04T17:02:47.009Z,30.80
2019-04-04T17:05:17.677Z,30.86
2019-04-04T17:07:47.973Z,31.13
2019-04-04T17:10:18.495Z,31.22
2019-04-04T17:12:49.464Z,31.30
2019-04-04T17:15:21.629Z,31.41
2019-04-04T17:17:52.465Z,31.59
2019-04-04T17:20:22.924Z,31.83
2019-04-04T17:22:53.232Z,32.02
2019-04-04T17:25:24.003Z,32.21
2019-04-04T17:27:54.723Z,32.18
2019-04-04T17:30:25.448Z,32.31
2019-04-04T17:32:56.669Z,32.29
2019-04-04T17:35:28.144Z,32.30
2019-04-04T17:37:58.916Z,32.32
2019-04-04T17:40:29.412Z,32.33
2019-04-04T17:43:00.038Z,32.59
2019-04-04T17:45:32.787Z,32.95
2019-04-04T17:48:02.881Z,32.95
2019-04-04T17:50:33.513Z,32.80
2019-04-04T17:53:05.406Z,33.00
2019-04-04T17:55:36.851Z,33.05
2019-04-04T17:58:07.294Z,33.12
2019-04-04T18:00:37.844Z,33.20
2019-04-04T18:03:09.229Z,33.43
2019-04-04T18:05:40.707Z,34.10
2019-04-04T18:08:14.076Z,34.78
2019-04-04T18:10:44.444Z,36.93
2019-04-04T18:13:15.377Z,35.80
2019-04-04T18:15:45.846Z,37.16
2019-04-04T18:18:16.490Z,37.30
2019-04-04T18:20:47.009Z,36.37
2019-04-04T18:23:20.617Z,37.53
2019-04-04T18:25:51.055Z,37.21
2019-04-04T18:28:21.958Z,36.85
2019-04-04T18:30:52.509Z,36.21
2019-04-04T18:33:23.215Z,37.32
2019-04-04T18:35:54.448Z,38.31
2019-04-04T18:38:25.261Z,37.28
2019-04-04T18:40:56.305Z,37.21
2019-04-04T18:43:29.309Z,36.65
2019-04-04T18:45:59.916Z,36.24
2019-04-04T18:48:35.559Z,35.97
2019-04-04T18:51:08.887Z,35.70
2019-04-04T18:53:43.264Z,35.70
2019-04-04T18:59:43.034Z,35.61
2019-04-04T19:02:13.608Z,35.79
2019-04-04T19:09:15.640Z,36.23
2019-04-04T19:11:46.304Z,35.95
2019-04-04T19:14:17.632Z,36.06
2019-04-04T19:16:49.579Z,36.34
2019-04-04T19:19:20.233Z,36.50
2019-04-04T19:21:52.096Z,36.88
2019-04-04T19:24:23.420Z,37.30
2019-04-04T19:26:54.549Z,37.17
2019-04-04T19:29:25.016Z,36.91
2019-04-04T19:31:59.805Z,36.82
2019-04-04T19:34:32.258Z,36.91
2019-04-04T19:37:02.944Z,36.92
2019-04-04T19:39:33.672Z,36.68
2019-04-04T19:42:05.308Z,36.78
2019-04-04T19:44:38.899Z,37.00
2019-04-04T19:47:09.250Z,37.03
2019-04-04T19:49:41.170Z,37.04
2019-04-04T19:52:30.508Z,37.00
2019-04-04T19:55:01.729Z,37.18
2019-04-04T20:12:33.939Z,37.55
2019-04-04T20:15:05.549Z,37.43
2019-04-04T20:17:37.852Z,37.54
2019-04-04T20:20:09.651Z,37.70
2019-04-04T20:22:41.018Z,38.12
2019-04-04T20:25:11.776Z,37.99
2019-04-04T20:27:54.882Z,37.98
2019-04-04T20:30:43.321Z,38.09
2019-04-04T20:33:17.489Z,38.16
2019-04-04T20:35:47.907Z,38.09
2019-04-04T20:38:19.860Z,38.28
2019-04-04T20:40:52.427Z,38.37
2019-04-04T20:43:22.629Z,38.38
2019-04-04T20:45:53.029Z,38.45
2019-04-04T20:48:24.405Z,38.61
2019-04-04T20:50:55.838Z,38.61
2019-04-04T20:53:26.466Z,39.00
2019-04-04T20:55:57.648Z,39.33
2019-04-04T20:58:28.404Z,39.42
2019-04-04T21:00:59.042Z,39.28
2019-04-04T21:03:29.802Z,39.34
2019-04-04T21:06:00.120Z,39.37
2019-04-04T21:08:30.582Z,39.14
2019-04-04T21:11:01.057Z,39.25
2019-04-04T21:13:31.302Z,39.40
2019-04-04T21:16:01.986Z,39.41
2019-04-04T21:18:32.479Z,39.45
2019-04-04T21:21:03.117Z,39.53
2019-04-04T21:23:33.302Z,39.68
2019-04-04T21:26:03.867Z,39.77
2019-04-04T21:28:34.677Z,39.86
2019-04-04T21:31:05.203Z,39.80
2019-04-04T21:33:35.619Z,39.77
2019-04-04T21:36:06.770Z,39.74
2019-04-04T21:38:37.387Z,39.75
2019-04-04T21:41:07.836Z,39.82
2019-04-04T21:43:38.162Z,39.99
2019-04-04T21:46:08.482Z,39.98
2019-04-04T21:48:38.721Z,39.93
2019-04-04T21:51:09.193Z,40.03
2019-04-04T21:53:40.963Z,40.12
2019-04-04T21:56:11.590Z,40.16
2019-04-04T21:58:41.827Z,40.26
2019-04-04T22:01:12.360Z,40.22
2019-04-04T22:03:42.745Z,40.12
2019-04-04T22:06:13.178Z,40.14
2019-04-04T22:08:43.604Z,40.23
2019-04-04T22:11:14.951Z,40.39
2019-04-04T22:13:45.858Z,40.48
2019-04-04T22:16:16.145Z,40.47
2019-04-04T22:18:46.437Z,40.53
2019-04-04T22:21:16.763Z,40.71
2019-04-04T22:23:47.957Z,40.79
2019-04-04T22:26:18.989Z,40.94
2019-04-04T22:28:49.568Z,41.04
2019-04-04T22:31:21.006Z,41.01
2019-04-04T22:33:51.332Z,41.00
2019-04-04T22:36:21.450Z,41.03
2019-04-04T22:39:52.983Z,41.08
2019-04-04T22:42:23.294Z,41.25
2019-04-04T22:44:53.906Z,41.14
2019-04-04T22:47:24.299Z,41.29
2019-04-04T22:49:54.734Z,41.51
2019-04-04T22:52:24.901Z,41.68
2019-04-04T22:54:55.066Z,41.80
2019-04-04T22:57:25.493Z,41.92
2019-04-04T23:00:32.296Z,41.97
2019-04-04T23:03:23.592Z,41.96
2019-04-04T23:05:54.171Z,41.67
2019-04-04T23:08:24.827Z,41.82
2019-04-04T23:10:55.428Z,42.01
2019-04-04T23:13:25.970Z,42.09
2019-04-04T23:15:56.641Z,42.15
2019-04-04T23:18:27.134Z,42.13
2019-04-04T23:20:57.543Z,42.20
2019-04-04T23:23:28.213Z,42.23
2019-04-04T23:25:59.868Z,42.30
2019-04-04T23:28:34.028Z,42.47
2019-04-04T23:31:04.147Z,42.71
2019-04-04T23:33:36.077Z,42.73
